Terminal Aerodrome Forecast
Issued by NWS

Home | Current Version | Previous Version | Text Only | Print | Product List | Glossary On
Versions: 1 2 3 4 5 6 7 8 9 10 11 12 13 14 15 16 17 18 19 20 21 22 23 24 25 26 27 28 29 30
000
FTUS43 KILX 302141 AAB
TAFDEC
TAF AMD
KDEC 302141Z 3022/0118 16011KT 5SM BR BKN005 OVC035
     FM010000 18008KT P6SM VCTS SCT015CB BKN035
     FM010400 VRB05KT 2SM BR BKN008
      TEMPO 0108/0112 1/2SM FG BKN005
     FM011500 02005KT P6SM BKN008=

USA.gov is the U.S. government's official web portal to all federal, state and local government web resources and services.